createdAt,value
2022-08-09T00:02:50.067Z,16.56
2022-08-09T00:07:44.562Z,16.50
2022-08-09T00:12:37.113Z,16.43
2022-08-09T00:18:05.171Z,16.36
2022-08-09T00:22:41.909Z,16.29
2022-08-09T00:27:43.118Z,16.19
2022-08-09T00:32:35.085Z,16.10
2022-08-09T00:37:27.009Z,16.01
2022-08-09T00:44:20.119Z,15.96
2022-08-09T00:47:39.862Z,15.90
2022-08-09T00:52:31.821Z,15.88
2022-08-09T00:57:34.874Z,15.85
2022-08-09T01:02:30.357Z,15.78
2022-08-09T01:08:01.021Z,15.78
2022-08-09T01:13:03.606Z,15.69
2022-08-09T01:18:02.725Z,15.66
2022-08-09T01:24:00.691Z,15.61
2022-08-09T01:28:39.414Z,15.55
2022-08-09T01:33:38.427Z,15.54
2022-08-09T01:38:34.539Z,15.50
2022-08-09T01:43:27.807Z,15.47
2022-08-09T01:48:29.855Z,15.43
2022-08-09T01:53:23.914Z,15.40
2022-08-09T01:58:24.241Z,15.42
2022-08-09T02:03:18.438Z,15.35
2022-08-09T02:08:38.849Z,15.28
2022-08-09T02:13:37.601Z,15.25
2022-08-09T02:18:35.900Z,15.21
2022-08-09T02:23:42.668Z,15.14
2022-08-09T02:28:41.529Z,15.08
2022-08-09T02:34:06.505Z,15.07
2022-08-09T02:38:56.173Z,15.04
2022-08-09T02:43:54.806Z,15.01
2022-08-09T02:48:48.521Z,14.94
2022-08-09T02:53:52.979Z,14.92
2022-08-09T02:58:53.275Z,14.90
2022-08-09T03:04:16.813Z,14.88
2022-08-09T03:08:59.638Z,14.84
2022-08-09T03:13:59.588Z,14.83
2022-08-09T03:18:55.764Z,14.80
2022-08-09T03:24:03.787Z,14.77
2022-08-09T03:28:59.328Z,14.72
2022-08-09T03:33:53.096Z,14.67
2022-08-09T03:38:45.762Z,14.62
2022-08-09T03:43:37.445Z,14.58
2022-08-09T03:48:31.148Z,14.51
2022-08-09T03:53:23.911Z,14.44
2022-08-09T03:58:23.849Z,14.37
2022-08-09T04:03:24.610Z,14.33
2022-08-09T04:08:29.120Z,14.33
2022-08-09T04:13:26.059Z,14.31
2022-08-09T04:18:33.101Z,14.28
2022-08-09T04:23:25.711Z,14.23
2022-08-09T04:28:33.429Z,14.19
2022-08-09T04:33:28.612Z,14.17
2022-08-09T04:38:20.440Z,14.20
2022-08-09T04:43:13.666Z,14.22
2022-08-09T04:48:10.330Z,14.24
2022-08-09T04:53:02.604Z,14.23
2022-08-09T04:58:01.787Z,14.22
2022-08-09T05:03:30.575Z,14.23
2022-08-09T05:08:17.319Z,14.24
2022-08-09T05:13:10.784Z,14.25
2022-08-09T05:18:39.148Z,14.26
2022-08-09T05:23:55.143Z,14.28
2022-08-09T05:28:25.959Z,14.35
2022-08-09T05:33:17.635Z,14.63
2022-08-09T05:38:09.239Z,15.17
2022-08-09T05:43:13.501Z,15.73
2022-08-09T05:48:08.725Z,16.26
2022-08-09T05:53:01.790Z,16.83
2022-08-09T05:57:56.681Z,17.20
2022-08-09T06:02:49.508Z,17.59
2022-08-09T06:08:04.995Z,18.11
2022-08-09T06:13:11.874Z,18.67
2022-08-09T06:18:10.043Z,19.11
2022-08-09T06:23:03.484Z,19.62
2022-08-09T06:27:55.160Z,20.16
2022-08-09T06:33:13.191Z,20.67
2022-08-09T06:38:05.461Z,20.98
2022-08-09T06:42:58.258Z,21.36
2022-08-09T06:48:00.849Z,21.56
2022-08-09T06:52:53.091Z,21.90
2022-08-09T06:58:01.317Z,22.18
2022-08-09T07:02:55.762Z,22.40
2022-08-09T07:08:00.168Z,22.81
2022-08-09T07:12:57.531Z,22.67
2022-08-09T07:17:52.522Z,22.84
2022-08-09T07:22:53.216Z,23.27
2022-08-09T07:27:53.429Z,23.47
2022-08-09T07:32:47.153Z,24.13
2022-08-09T07:37:45.712Z,24.18
2022-08-09T07:43:16.359Z,24.66
2022-08-09T07:48:28.451Z,24.87
2022-08-09T07:53:36.243Z,25.13
2022-08-09T07:58:33.997Z,25.39
2022-08-09T08:03:26.914Z,26.05
2022-08-09T08:09:02.690Z,26.52
2022-08-09T08:13:38.212Z,26.73
2022-08-09T08:18:36.655Z,27.56
2022-08-09T08:23:28.668Z,28.20
2022-08-09T08:28:31.909Z,28.66
2022-08-09T08:33:24.828Z,29.48
2022-08-09T08:38:16.550Z,29.73
2022-08-09T08:43:13.668Z,30.43
2022-08-09T08:48:06.113Z,31.11
2022-08-09T08:53:00.525Z,31.02
2022-08-09T08:57:57.174Z,31.17
2022-08-09T09:02:52.898Z,31.84
2022-08-09T09:07:50.517Z,32.23
2022-08-09T09:12:45.210Z,32.72
2022-08-09T09:17:49.083Z,32.93
2022-08-09T09:22:53.130Z,32.30
2022-08-09T09:28:03.641Z,32.29
2022-08-09T09:33:16.919Z,32.62
2022-08-09T09:38:09.490Z,33.24
2022-08-09T09:43:20.807Z,33.49
2022-08-09T09:48:13.537Z,33.44
2022-08-09T09:53:10.480Z,33.12
2022-08-09T09:58:18.235Z,33.23
2022-08-09T10:03:13.949Z,33.69
2022-08-09T10:08:26.950Z,33.72
2022-08-09T10:13:43.483Z,33.31
2022-08-09T10:18:30.497Z,33.34
2022-08-09T10:23:23.980Z,33.55
2022-08-09T10:28:20.023Z,33.35
2022-08-09T10:34:04.917Z,33.27
2022-08-09T10:38:54.460Z,33.42
2022-08-09T10:43:46.905Z,33.72
2022-08-09T10:48:53.965Z,34.22
2022-08-09T10:54:12.521Z,34.34
2022-08-09T10:59:23.488Z,34.45
2022-08-09T11:04:29.809Z,34.04
2022-08-09T11:09:47.907Z,34.11
2022-08-09T11:14:55.814Z,34.59
2022-08-09T11:20:22.825Z,34.29
2022-08-09T11:25:25.790Z,34.30
2022-08-09T11:30:33.826Z,34.34
2022-08-09T11:35:51.634Z,34.57
2022-08-09T11:40:44.526Z,34.80
2022-08-09T11:45:44.431Z,34.84
2022-08-09T11:52:48.480Z,34.56
2022-08-09T11:56:19.341Z,33.87
2022-08-09T12:01:15.552Z,33.59
2022-08-09T12:06:32.363Z,33.76
2022-08-09T12:11:27.549Z,33.77
2022-08-09T12:16:38.228Z,33.85
2022-08-09T12:21:38.778Z,33.91
2022-08-09T12:29:00.101Z,33.87
2022-08-09T12:32:05.840Z,33.66
2022-08-09T12:37:21.515Z,33.69
2022-08-09T12:42:16.152Z,33.58
2022-08-09T12:47:12.369Z,33.45
2022-08-09T12:52:05.338Z,33.29
2022-08-09T12:56:58.687Z,32.89
2022-08-09T13:01:59.545Z,32.70
2022-08-09T13:06:51.255Z,32.63
2022-08-09T13:11:49.715Z,32.58
2022-08-09T13:17:08.605Z,32.46
2022-08-09T13:22:36.416Z,32.26
2022-08-09T13:27:39.497Z,32.21
2022-08-09T13:32:48.461Z,32.11
2022-08-09T13:37:51.606Z,32.04
2022-08-09T13:42:45.698Z,31.83
2022-08-09T13:47:48.833Z,31.42
2022-08-09T13:52:43.301Z,31.19
2022-08-09T13:57:41.265Z,31.04
2022-08-09T14:02:33.067Z,30.86
2022-08-09T14:07:30.370Z,30.71
2022-08-09T14:12:35.348Z,30.65
2022-08-09T14:17:27.116Z,30.65
2022-08-09T14:22:38.717Z,30.73
2022-08-09T14:27:34.129Z,30.80
2022-08-09T14:32:31.755Z,30.69
2022-08-09T14:37:28.441Z,30.54
2022-08-09T14:42:28.900Z,30.53
2022-08-09T14:47:39.894Z,30.46
2022-08-09T14:52:35.616Z,30.06
2022-08-09T14:57:32.113Z,29.65
2022-08-09T15:02:35.232Z,29.33
2022-08-09T15:07:29.050Z,29.17
2022-08-09T15:12:27.637Z,29.23
2022-08-09T15:17:19.299Z,29.10
2022-08-09T15:22:11.569Z,29.12
2022-08-09T15:27:03.661Z,29.13
2022-08-09T15:31:55.646Z,29.07
2022-08-09T15:36:48.186Z,28.98
2022-08-09T15:41:40.103Z,28.82
2022-08-09T15:46:35.092Z,28.73
2022-08-09T15:51:44.409Z,28.60
2022-08-09T15:56:38.561Z,28.60
2022-08-09T16:01:31.323Z,28.53
2022-08-09T16:06:35.447Z,28.41
2022-08-09T16:11:30.971Z,28.36
2022-08-09T16:16:28.232Z,28.28
2022-08-09T16:21:25.448Z,28.17
2022-08-09T16:26:20.041Z,28.00
2022-08-09T16:32:10.157Z,28.03
2022-08-09T16:36:40.298Z,28.12
2022-08-09T16:42:02.188Z,28.12
2022-08-09T16:46:54.899Z,28.16
2022-08-09T16:51:55.280Z,28.12
2022-08-09T16:56:49.180Z,28.07
2022-08-09T17:01:43.773Z,27.94
2022-08-09T17:08:41.234Z,27.92
2022-08-09T17:11:54.104Z,27.90
2022-08-09T17:16:46.242Z,27.88
2022-08-09T17:21:37.877Z,27.86
2022-08-09T17:26:37.863Z,27.85
2022-08-09T17:31:30.054Z,27.82
2022-08-09T17:36:30.711Z,27.69
2022-08-09T17:41:22.372Z,27.50
2022-08-09T17:46:34.055Z,27.29
2022-08-09T17:51:26.082Z,27.16
2022-08-09T17:56:27.285Z,26.96
2022-08-09T18:01:22.923Z,26.87
2022-08-09T18:06:31.007Z,26.73
2022-08-09T18:11:24.149Z,26.74
2022-08-09T18:16:16.436Z,26.67
2022-08-09T18:21:21.542Z,26.66
2022-08-09T18:26:15.499Z,26.55
2022-08-09T18:31:07.313Z,26.43
2022-08-09T18:36:00.564Z,26.33
2022-08-09T18:40:53.607Z,26.25
2022-08-09T18:46:50.297Z,26.14
2022-08-09T18:50:59.887Z,25.97
2022-08-09T18:55:57.193Z,25.81
2022-08-09T19:01:00.282Z,25.65
2022-08-09T19:06:04.262Z,25.63
2022-08-09T19:10:57.305Z,25.48
2022-08-09T19:15:49.315Z,25.37
2022-08-09T19:20:42.022Z,25.27
2022-08-09T19:26:01.018Z,25.09
2022-08-09T19:30:47.923Z,24.97
2022-08-09T19:35:58.363Z,24.92
2022-08-09T19:40:50.641Z,24.80
2022-08-09T19:45:42.405Z,24.66
2022-08-09T19:50:50.393Z,24.54
2022-08-09T19:56:02.568Z,24.41
2022-08-09T20:00:58.129Z,24.27
2022-08-09T20:05:50.641Z,24.12
2022-08-09T20:10:43.081Z,24.01
2022-08-09T20:16:33.354Z,23.85
2022-08-09T20:20:47.753Z,23.73
2022-08-09T20:25:52.335Z,23.59
2022-08-09T20:30:45.501Z,23.48
2022-08-09T20:35:39.944Z,23.37
2022-08-09T20:40:37.383Z,23.24
2022-08-09T20:45:59.756Z,23.14
2022-08-09T20:50:48.145Z,22.97
2022-08-09T20:55:47.456Z,22.85
2022-08-09T21:01:13.714Z,22.79
2022-08-09T21:06:04.152Z,22.70
2022-08-09T21:10:56.573Z,22.59
2022-08-09T21:15:54.358Z,22.47
2022-08-09T21:20:54.026Z,22.34
2022-08-09T21:25:56.019Z,22.18
2022-08-09T21:30:51.249Z,22.11
2022-08-09T21:35:51.209Z,22.00
2022-08-09T21:40:45.220Z,21.91
2022-08-09T21:45:42.435Z,21.77
2022-08-09T21:50:39.237Z,21.63
2022-08-09T21:55:46.491Z,21.48
2022-08-09T22:00:38.494Z,21.32
2022-08-09T22:05:36.058Z,21.18
2022-08-09T22:10:28.954Z,21.01
2022-08-09T22:15:23.358Z,20.93
2022-08-09T22:20:27.425Z,20.82
2022-08-09T22:26:07.518Z,20.71
2022-08-09T22:30:34.750Z,20.61
2022-08-09T22:36:02.052Z,20.50
2022-08-09T22:40:40.097Z,20.39
2022-08-09T22:48:15.363Z,20.30
2022-08-09T22:56:29.336Z,20.19
2022-08-09T23:00:56.821Z,20.14
2022-08-09T23:05:49.492Z,20.10
2022-08-09T23:10:43.821Z,20.06
2022-08-09T23:15:35.762Z,20.01
2022-08-09T23:20:28.839Z,19.94
2022-08-09T23:25:20.817Z,19.89
2022-08-09T23:30:12.655Z,19.83
2022-08-09T23:35:04.592Z,19.76
2022-08-09T23:39:56.289Z,19.70
2022-08-09T23:44:48.025Z,19.62
2022-08-09T23:49:39.712Z,19.55
2022-08-09T23:54:31.394Z,19.51
2022-08-09T23:59:24.826Z,19.44
